Tanacross, AK (99776)

8:19 PM AKST on December 04, 2016 (GMT -0900)
Turks on the Tundra | | Change Station

Elev 1635 ft 63.34 °N, 142.99 °W | Updated 6 minutes ago

Light Snow
Light Snow
-7.3 °F
Feels Like -7 °F
N
0.0
Wind Variable Wind from North
Gusts 0.0 mph

Today
High -- | Low -- °F
--% Chance of Precip.
Yesterday
High -- | Low -- °F
Precip. -- in
Pressure 30.73 in
Visibility 9.0 miles
Clouds Overcast 6000 ft
Windchill -7 °F
Dew Point -11 °F
Humidity 84%
Rainfall 0.00 in
Snow Depth Not available.
9:51 AM 2:56 PM
Waxing Crescent, 28% visible
METAR PAOR 050453Z 00000KT 9SM -SN OVC060 M21/M24 A3050 RMK AO2 SLP406 PCPN VRY LGT T12111244
Pressure 30.73 in
Visibility 9.0 miles
Clouds Overcast 6000 ft
Windchill -7 °F
Dew Point -11 °F
Humidity 84%
Rainfall 0.00 in
Snow Depth Not available.
9:51 AM 2:56 PM
Waxing Crescent, 28% visible
METAR PAOR 050453Z 00000KT 9SM -SN OVC060 M21/M24 A3050 RMK AO2 SLP406 PCPN VRY LGT T12111244

10-Day Weather Forecast

Almanac

Astronomy

Dec. 04, 2016 Rise Set
Actual Time
Civil Twilight
Nautical Twilight
Astronomical Twilight
Moon
Length of Visible Light
Length of Day
Tomorrow will be .
, % of the Moon is Illuminated

Today's Extremes

State Highs State Lows

Community

WunderPhotos

Upload Photos

1,955,765 photos uploaded!

WunderBlog® & News

Nearby

Air Quality

  Air Quality AQ Index Pollutant
Not available.

Snow Depth

Station Depth Elevation

Earthquake Activity

City Distance Mag. Time & Date
Minimum magnitude displayed is 2.5.

Coastal Water Temperatures

Place Temperature

Stations

Nearby Weather Stations

Station Location Temp. Windchill Dew Point Humidity Wind Precip. Elev Updated Type
                   

Watches & Warnings

There are currently no watches in effect.